Time;durP1;ratioP1;P1;durP2;ratioP2;P2;SDS_P1;SDS_P2;PMS_P1;PMS_P2;Temp;Humidity;BMP_temperature;BMP_pressure;BME280_temperature;BME280_humidity;BME280_pressure;Samples;Min_cycle;Max_cycle;Signal;HPM_P1;HPM_P2
2023/07/15 00:00:36;;;;;;;4.22;1.90;;;;;;;;;;5049952;28;20137;-92
2023/07/15 00:03:03;;;;;;;3.38;2.05;;;;;;;;;;5039641;28;20112;-93
2023/07/15 00:05:34;;;;;;;4.05;2.10;;;;;;;;;;5032000;28;20042;-93
2023/07/15 00:08:01;;;;;;;2.50;1.85;;;;;;;;;;5039766;28;20053;-95
2023/07/15 00:10:27;;;;;;;3.25;2.20;;;;;;;;;;5029062;28;20037;-92
2023/07/15 00:12:53;;;;;;;2.67;2.00;;;;;;;;;;5031506;28;20061;-90
2023/07/15 00:15:19;;;;;;;2.65;2.05;;;;;;;;;;5030555;28;20042;-93
2023/07/15 00:17:45;;;;;;;3.25;2.03;;;;;;;;;;5042013;28;20473;-94
2023/07/15 00:20:14;;;;;;;3.53;2.10;;;;;;;;;;5040429;28;20097;-95
2023/07/15 00:22:44;;;;;;;2.22;1.88;;;;;;;;;;5033420;28;20410;-90
2023/07/15 00:25:17;;;;;;;2.33;2.13;;;;;;;;;;5033371;28;20045;-91
2023/07/15 00:27:44;;;;;;;3.17;2.08;;;;;;;;;;5049291;28;20056;-91
2023/07/15 00:30:11;;;;;;;2.78;2.13;;;;;;;;;;5065566;28;20534;-93
2023/07/15 00:32:38;;;;;;;3.78;1.70;;;;;;;;;;5052713;28;20041;-92
2023/07/15 00:35:10;;;;;;;2.88;1.85;;;;;;;;;;5056308;28;20394;-92
2023/07/15 00:37:36;;;;;;;2.35;1.95;;;;;;;;;;5023725;28;20048;-92
2023/07/15 00:40:04;;;;;;;2.38;1.73;;;;;;;;;;5066958;28;20045;-93
2023/07/15 00:43:00;;;;;;;3.83;1.80;;;;;;;;;;5047536;28;20072;-92
2023/07/15 00:45:26;;;;;;;3.55;1.90;;;;;;;;;;5011178;28;20080;-92
2023/07/15 00:47:58;;;;;;;2.47;1.60;;;;;;;;;;4996630;28;20081;-93
2023/07/15 00:50:24;;;;;;;4.00;1.73;;;;;;;;;;5011958;28;20128;-92
2023/07/15 00:52:50;;;;;;;2.72;1.42;;;;;;;;;;5010433;28;20042;-91
2023/07/15 00:55:16;;;;;;;2.70;1.90;;;;;;;;;;5027939;28;20084;-91
2023/07/15 00:57:43;;;;;;;2.60;1.80;;;;;;;;;;5007294;28;20045;-92
2023/07/15 01:00:10;;;;;;;3.53;1.88;;;;;;;;;;5021813;28;20046;-92
2023/07/15 01:02:37;;;;;;;2.00;1.80;;;;;;;;;;4993042;28;20053;-92
2023/07/15 01:05:04;;;;;;;2.17;1.70;;;;;;;;;;5028388;28;20367;-91
2023/07/15 01:07:30;;;;;;;3.40;1.85;;;;;;;;;;4991412;28;20054;-93
2023/07/15 01:09:56;;;;;;;3.25;1.80;;;;;;;;;;4997927;28;20053;-93
2023/07/15 01:12:22;;;;;;;2.60;1.70;;;;;;;;;;5034497;28;20053;-93
2023/07/15 01:14:49;;;;;;;4.05;1.90;;;;;;;;;;5001980;28;20161;-93
2023/07/15 01:17:15;;;;;;;4.75;2.33;;;;;;;;;;4994402;28;20087;-93
2023/07/15 01:19:41;;;;;;;2.65;1.80;;;;;;;;;;5011005;28;20037;-93
2023/07/15 01:22:07;;;;;;;4.28;1.83;;;;;;;;;;5004809;28;20076;-93
2023/07/15 01:24:34;;;;;;;2.72;1.83;;;;;;;;;;5023091;28;20038;-93
2023/07/15 01:27:02;;;;;;;3.13;1.70;;;;;;;;;;5036388;28;20048;-92
2023/07/15 01:29:28;;;;;;;3.08;1.67;;;;;;;;;;5045950;28;20072;-93
2023/07/15 01:31:54;;;;;;;3.35;1.63;;;;;;;;;;5039142;28;20426;-93
2023/07/15 01:34:21;;;;;;;3.90;1.90;;;;;;;;;;5071656;28;20044;-93
2023/07/15 01:36:48;;;;;;;2.38;1.55;;;;;;;;;;5053302;28;20519;-92
2023/07/15 01:39:15;;;;;;;1.90;1.70;;;;;;;;;;5052718;28;20044;-93
2023/07/15 01:41:42;;;;;;;2.75;1.80;;;;;;;;;;5050046;28;20064;-92
2023/07/15 01:44:08;;;;;;;2.35;1.90;;;;;;;;;;5021790;28;20099;-93
2023/07/15 01:46:36;;;;;;;2.20;1.80;;;;;;;;;;5079546;28;20594;-93
2023/07/15 01:49:03;;;;;;;2.45;1.67;;;;;;;;;;5048555;28;20485;-92
2023/07/15 01:51:30;;;;;;;1.80;1.42;;;;;;;;;;5052506;28;20120;-93
2023/07/15 01:53:56;;;;;;;5.00;1.83;;;;;;;;;;5051264;28;20469;-93
2023/07/15 01:56:22;;;;;;;3.20;1.80;;;;;;;;;;5047681;28;20041;-93
2023/07/15 01:58:48;;;;;;;3.65;2.00;;;;;;;;;;5054884;28;20062;-92
2023/07/15 02:01:14;;;;;;;2.70;1.88;;;;;;;;;;5054165;28;20698;-95
2023/07/15 02:03:40;;;;;;;1.73;1.58;;;;;;;;;;5034653;28;20041;-92
2023/07/15 02:06:06;;;;;;;3.00;1.92;;;;;;;;;;5033762;28;20040;-91
2023/07/15 02:08:32;;;;;;;3.08;1.77;;;;;;;;;;5042258;28;20041;-92
2023/07/15 02:10:59;;;;;;;2.53;1.73;;;;;;;;;;5034211;28;20043;-91
2023/07/15 02:13:25;;;;;;;2.58;1.70;;;;;;;;;;5053152;28;20045;-91
2023/07/15 02:15:51;;;;;;;4.13;1.80;;;;;;;;;;5052328;28;20036;-92
2023/07/15 02:18:17;;;;;;;2.60;1.60;;;;;;;;;;5049733;28;20048;-92
2023/07/15 02:20:46;;;;;;;2.45;1.77;;;;;;;;;;5052320;28;20041;-92
2023/07/15 02:23:12;;;;;;;3.28;1.88;;;;;;;;;;5047805;28;20040;-91
2023/07/15 02:25:38;;;;;;;3.38;1.98;;;;;;;;;;5046418;28;20517;-92
2023/07/15 02:28:04;;;;;;;1.90;1.50;;;;;;;;;;5037522;28;20038;-92
2023/07/15 02:30:30;;;;;;;3.42;1.60;;;;;;;;;;5054350;28;20061;-91
2023/07/15 02:32:58;;;;;;;2.60;1.70;;;;;;;;;;5033565;28;20041;-84
2023/07/15 02:35:24;;;;;;;2.90;1.92;;;;;;;;;;5048425;28;20045;-85
2023/07/15 02:37:50;;;;;;;2.28;2.08;;;;;;;;;;5043909;28;20037;-85
2023/07/15 02:40:17;;;;;;;3.25;2.33;;;;;;;;;;5062012;28;20382;-84
2023/07/15 02:42:43;;;;;;;3.63;1.88;;;;;;;;;;5031267;28;20450;-85
2023/07/15 02:45:09;;;;;;;2.05;1.85;;;;;;;;;;5080896;28;20175;-85
2023/07/15 02:47:36;;;;;;;1.92;1.77;;;;;;;;;;5047154;28;20046;-84
2023/07/15 02:50:06;;;;;;;1.58;1.48;;;;;;;;;;5063248;28;20037;-85
2023/07/15 02:52:32;;;;;;;3.30;1.95;;;;;;;;;;5048354;28;20115;-84
2023/07/15 02:55:06;;;;;;;2.30;1.90;;;;;;;;;;5048808;28;20383;-85
2023/07/15 02:57:33;;;;;;;2.30;1.52;;;;;;;;;;5032772;28;20053;-85
2023/07/15 02:59:59;;;;;;;1.67;1.40;;;;;;;;;;5067230;28;20052;-85
2023/07/15 03:02:25;;;;;;;1.70;1.60;;;;;;;;;;5070100;28;20052;-84
2023/07/15 03:04:52;;;;;;;2.47;1.75;;;;;;;;;;5050699;28;20145;-85
2023/07/15 03:07:18;;;;;;;2.42;1.42;;;;;;;;;;5044432;28;20038;-85
2023/07/15 03:09:44;;;;;;;2.35;1.70;;;;;;;;;;5061922;28;20445;-84
2023/07/15 03:12:11;;;;;;;2.15;1.75;;;;;;;;;;5030820;28;20387;-85
2023/07/15 03:14:38;;;;;;;2.38;1.48;;;;;;;;;;5029968;28;20433;-85
2023/07/15 03:17:04;;;;;;;2.65;1.60;;;;;;;;;;5062236;28;20441;-85
2023/07/15 03:19:31;;;;;;;1.92;1.67;;;;;;;;;;5061945;28;20046;-84
2023/07/15 03:22:00;;;;;;;2.25;1.60;;;;;;;;;;5037773;28;20453;-84
2023/07/15 03:24:26;;;;;;;1.73;1.60;;;;;;;;;;5032525;28;20048;-85
2023/07/15 03:26:53;;;;;;;2.72;1.30;;;;;;;;;;5038391;28;20041;-85
2023/07/15 03:29:19;;;;;;;1.85;1.70;;;;;;;;;;5048593;28;20049;-85
2023/07/15 03:31:45;;;;;;;2.03;1.50;;;;;;;;;;5048913;28;20451;-84
2023/07/15 03:34:11;;;;;;;2.55;1.77;;;;;;;;;;5050360;28;20124;-85
2023/07/15 03:36:37;;;;;;;1.85;1.63;;;;;;;;;;5040303;28;20386;-84
2023/07/15 03:39:03;;;;;;;2.50;1.48;;;;;;;;;;5062113;28;20509;-85
2023/07/15 03:41:29;;;;;;;3.17;1.77;;;;;;;;;;5066349;28;20072;-84
2023/07/15 03:43:55;;;;;;;2.15;1.60;;;;;;;;;;5029628;28;20038;-85
2023/07/15 03:46:23;;;;;;;2.42;1.50;;;;;;;;;;5028206;28;20157;-85
2023/07/15 03:48:49;;;;;;;2.13;1.48;;;;;;;;;;5028434;28;20120;-85
2023/07/15 03:51:15;;;;;;;3.33;1.65;;;;;;;;;;5028599;28;20247;-84
2023/07/15 03:53:41;;;;;;;1.95;1.60;;;;;;;;;;5061233;28;20041;-85
2023/07/15 03:56:07;;;;;;;2.85;1.73;;;;;;;;;;5061304;28;20120;-85
2023/07/15 03:58:33;;;;;;;1.80;1.70;;;;;;;;;;5032438;28;20116;-85
2023/07/15 04:00:59;;;;;;;1.35;1.25;;;;;;;;;;5032300;28;20041;-85
2023/07/15 04:03:25;;;;;;;2.60;1.77;;;;;;;;;;5047675;28;20117;-85
2023/07/15 04:05:51;;;;;;;2.70;2.13;;;;;;;;;;5047659;28;20045;-86
2023/07/15 04:08:17;;;;;;;1.88;1.27;;;;;;;;;;5050808;28;20118;-85
2023/07/15 04:10:46;;;;;;;3.65;1.40;;;;;;;;;;5056456;28;20041;-85
2023/07/15 04:13:12;;;;;;;2.88;1.58;;;;;;;;;;5047445;28;20533;-85
2023/07/15 04:15:38;;;;;;;2.95;1.60;;;;;;;;;;5047796;28;20056;-85
2023/07/15 04:18:04;;;;;;;2.03;1.30;;;;;;;;;;5029102;28;20478;-85
2023/07/15 04:20:30;;;;;;;1.83;1.35;;;;;;;;;;5027200;28;20045;-85
2023/07/15 04:22:57;;;;;;;4.20;1.75;;;;;;;;;;5060696;28;20096;-85
2023/07/15 04:25:23;;;;;;;2.80;1.70;;;;;;;;;;5061192;28;20375;-85
2023/07/15 04:27:49;;;;;;;2.90;1.40;;;;;;;;;;5060920;28;20107;-85
2023/07/15 04:30:16;;;;;;;4.47;2.03;;;;;;;;;;5061020;28;20124;-85
2023/07/15 04:32:42;;;;;;;2.10;1.60;;;;;;;;;;5029340;28;20045;-86
2023/07/15 04:35:08;;;;;;;4.40;1.50;;;;;;;;;;5027833;28;20167;-85
2023/07/15 04:37:35;;;;;;;1.75;1.40;;;;;;;;;;5047131;28;20048;-85
2023/07/15 04:40:04;;;;;;;2.70;1.25;;;;;;;;;;5031651;28;20052;-85
2023/07/15 04:42:30;;;;;;;4.50;1.67;;;;;;;;;;5028150;28;20644;-85
2023/07/15 04:44:56;;;;;;;1.50;1.27;;;;;;;;;;5028076;28;20550;-85
2023/07/15 04:47:22;;;;;;;2.40;1.42;;;;;;;;;;5028621;28;20049;-85
2023/07/15 04:49:48;;;;;;;2.08;1.40;;;;;;;;;;5028475;28;20455;-85
2023/07/15 04:52:14;;;;;;;4.65;1.63;;;;;;;;;;5043596;28;20378;-85
2023/07/15 04:54:40;;;;;;;4.38;1.60;;;;;;;;;;5047368;28;20103;-85
2023/07/15 04:57:07;;;;;;;2.17;1.80;;;;;;;;;;5028711;28;20449;-86
2023/07/15 04:59:33;;;;;;;2.47;1.50;;;;;;;;;;5046033;28;20483;-85
2023/07/15 05:01:59;;;;;;;1.85;1.50;;;;;;;;;;5045957;28;20033;-84
2023/07/15 05:04:26;;;;;;;3.10;1.85;;;;;;;;;;5050883;28;20044;-84
2023/07/15 05:06:53;;;;;;;2.58;1.63;;;;;;;;;;5043298;28;20051;-84
2023/07/15 05:09:19;;;;;;;2.90;1.75;;;;;;;;;;5052152;28;20049;-85
2023/07/15 05:11:45;;;;;;;2.30;1.67;;;;;;;;;;5043193;28;20061;-84
2023/07/15 05:14:11;;;;;;;3.70;1.85;;;;;;;;;;5052498;28;20071;-85
2023/07/15 05:16:37;;;;;;;3.03;1.65;;;;;;;;;;5050456;28;20075;-84
2023/07/15 05:19:03;;;;;;;3.22;1.75;;;;;;;;;;5053364;28;20044;-84
2023/07/15 05:21:29;;;;;;;2.58;1.58;;;;;;;;;;5039492;28;20052;-86
2023/07/15 05:23:56;;;;;;;1.67;1.27;;;;;;;;;;5076136;28;20874;-82
2023/07/15 05:26:22;;;;;;;2.10;1.60;;;;;;;;;;5042313;28;20143;-83
2023/07/15 05:28:48;;;;;;;2.90;1.40;;;;;;;;;;5051503;28;20052;-85
2023/07/15 05:31:14;;;;;;;3.95;1.45;;;;;;;;;;5049300;28;20045;-88
2023/07/15 05:33:44;;;;;;;2.75;1.60;;;;;;;;;;5044823;28;20037;-87
2023/07/15 05:36:10;;;;;;;8.93;3.25;;;;;;;;;;5052570;28;20072;-91
2023/07/15 05:38:42;;;;;;;1.63;1.35;;;;;;;;;;5059445;28;20037;-87
2023/07/15 05:41:08;;;;;;;1.90;1.65;;;;;;;;;;5055352;28;20045;-87
2023/07/15 05:43:34;;;;;;;2.13;1.70;;;;;;;;;;5061620;28;20167;-85
2023/07/15 05:46:00;;;;;;;1.67;1.50;;;;;;;;;;5042545;28;20056;-84
2023/07/15 05:48:26;;;;;;;1.88;1.42;;;;;;;;;;5044021;28;20064;-86
2023/07/15 05:50:52;;;;;;;1.95;1.52;;;;;;;;;;5038025;28;20082;-85
2023/07/15 05:53:18;;;;;;;1.98;1.70;;;;;;;;;;5051361;28;20041;-86
2023/07/15 05:55:44;;;;;;;3.97;1.95;;;;;;;;;;5050958;28;20397;-84
2023/07/15 05:58:10;;;;;;;2.22;1.60;;;;;;;;;;5039137;28;20037;-85
2023/07/15 06:00:40;;;;;;;2.22;1.52;;;;;;;;;;5039877;28;20041;-85
2023/07/15 06:03:06;;;;;;;3.05;1.83;;;;;;;;;;5046615;28;20049;-84
2023/07/15 06:05:32;;;;;;;2.95;1.95;;;;;;;;;;5046427;28;20033;-91
2023/07/15 06:07:58;;;;;;;2.63;1.58;;;;;;;;;;5044781;28;20041;-86
2023/07/15 06:10:24;;;;;;;2.60;1.58;;;;;;;;;;5049475;28;20056;-87
2023/07/15 06:12:50;;;;;;;4.45;1.73;;;;;;;;;;5042061;28;20045;-88
2023/07/15 06:15:16;;;;;;;6.18;1.70;;;;;;;;;;5049264;28;20079;-87
2023/07/15 06:17:43;;;;;;;2.22;1.75;;;;;;;;;;5050775;28;20041;-88
2023/07/15 06:20:10;;;;;;;2.03;1.48;;;;;;;;;;5054930;28;20520;-87
2023/07/15 06:22:36;;;;;;;2.28;1.77;;;;;;;;;;5050988;28;20436;-87
2023/07/15 06:25:02;;;;;;;1.88;1.50;;;;;;;;;;5050193;28;20045;-87
2023/07/15 06:27:28;;;;;;;4.68;1.75;;;;;;;;;;5042084;28;20034;-87
2023/07/15 06:29:54;;;;;;;3.75;1.70;;;;;;;;;;5066463;28;20494;-88
2023/07/15 06:32:20;;;;;;;2.85;1.85;;;;;;;;;;5064365;28;20072;-88
2023/07/15 06:34:46;;;;;;;3.08;1.65;;;;;;;;;;5061755;28;20378;-88
2023/07/15 06:37:12;;;;;;;2.60;1.85;;;;;;;;;;5069470;28;20048;-87
2023/07/15 06:39:38;;;;;;;3.15;2.05;;;;;;;;;;5067470;28;20044;-86
2023/07/15 06:42:05;;;;;;;1.58;1.48;;;;;;;;;;5044527;28;20060;-87
2023/07/15 06:44:31;;;;;;;2.22;1.63;;;;;;;;;;5034110;28;20124;-87
2023/07/15 06:46:57;;;;;;;2.20;1.75;;;;;;;;;;5067744;28;20373;-86
2023/07/15 06:49:23;;;;;;;2.67;1.70;;;;;;;;;;5067654;28;20049;-86
2023/07/15 06:51:49;;;;;;;2.85;1.80;;;;;;;;;;5051377;28;20095;-87
2023/07/15 06:54:15;;;;;;;2.65;1.73;;;;;;;;;;5049424;28;20045;-85
2023/07/15 06:56:41;;;;;;;4.03;2.10;;;;;;;;;;5051000;28;20033;-84
2023/07/15 06:59:07;;;;;;;3.95;2.00;;;;;;;;;;5041258;28;20402;-87
2023/07/15 07:01:33;;;;;;;2.15;1.90;;;;;;;;;;5043776;28;20051;-86
2023/07/15 07:03:59;;;;;;;2.03;1.58;;;;;;;;;;5043284;28;20044;-88
2023/07/15 07:06:25;;;;;;;3.58;1.92;;;;;;;;;;5041688;28;20041;-86
2023/07/15 07:08:52;;;;;;;1.52;1.42;;;;;;;;;;5046073;28;20053;-87
2023/07/15 07:11:18;;;;;;;2.30;1.85;;;;;;;;;;5046065;28;20531;-86
2023/07/15 07:13:44;;;;;;;2.63;1.42;;;;;;;;;;5049657;28;20103;-85
2023/07/15 07:16:10;;;;;;;3.00;1.85;;;;;;;;;;5035027;28;20053;-82
2023/07/15 07:18:36;;;;;;;1.75;1.50;;;;;;;;;;5053816;28;20077;-81
2023/07/15 07:21:02;;;;;;;2.10;1.67;;;;;;;;;;5046426;28;20449;-82
2023/07/15 07:23:29;;;;;;;2.10;1.75;;;;;;;;;;5048472;28;20094;-81
2023/07/15 07:25:56;;;;;;;1.80;1.45;;;;;;;;;;5057519;28;20052;-82
2023/07/15 07:28:25;;;;;;;1.50;1.30;;;;;;;;;;5048640;28;20124;-81
2023/07/15 07:30:51;;;;;;;2.58;1.33;;;;;;;;;;5047003;28;20125;-81
2023/07/15 07:33:19;;;;;;;6.43;1.75;;;;;;;;;;5040508;28;20076;-80
2023/07/15 07:35:46;;;;;;;2.35;1.70;;;;;;;;;;5047370;28;20055;-81
2023/07/15 07:38:13;;;;;;;1.73;1.35;;;;;;;;;;5047107;28;20060;-83
2023/07/15 07:40:39;;;;;;;1.85;1.58;;;;;;;;;;5048181;28;20052;-82
2023/07/15 07:43:05;;;;;;;1.42;1.30;;;;;;;;;;5063257;28;20044;-88
2023/07/15 07:45:31;;;;;;;3.92;1.55;;;;;;;;;;5047946;28;20041;-85
2023/07/15 07:47:57;;;;;;;2.70;1.33;;;;;;;;;;5075335;28;20382;-84
2023/07/15 07:50:23;;;;;;;2.70;1.45;;;;;;;;;;5054651;28;20513;-87
2023/07/15 07:52:49;;;;;;;3.45;1.63;;;;;;;;;;5029852;28;20069;-88
2023/07/15 07:55:15;;;;;;;1.55;1.23;;;;;;;;;;5065307;28;20033;-87
2023/07/15 07:57:41;;;;;;;2.10;1.27;;;;;;;;;;5048322;28;20047;-86
2023/07/15 08:00:07;;;;;;;2.65;1.52;;;;;;;;;;5064217;28;20500;-86
2023/07/15 08:02:33;;;;;;;2.00;1.40;;;;;;;;;;5044786;28;20053;-92
2023/07/15 08:04:59;;;;;;;2.15;1.50;;;;;;;;;;5036001;28;20025;-86
2023/07/15 08:07:25;;;;;;;1.42;1.20;;;;;;;;;;5044325;28;20037;-87
2023/07/15 08:09:51;;;;;;;1.55;1.45;;;;;;;;;;5036972;28;20401;-85
2023/07/15 08:12:18;;;;;;;2.15;1.23;;;;;;;;;;5046590;28;20056;-85
2023/07/15 08:14:44;;;;;;;1.95;1.67;;;;;;;;;;5029480;28;20049;-88
2023/07/15 08:17:10;;;;;;;1.45;1.25;;;;;;;;;;5028820;28;20393;-86
2023/07/15 08:19:36;;;;;;;4.72;1.65;;;;;;;;;;5033593;28;20117;-84
2023/07/15 08:22:02;;;;;;;2.05;1.50;;;;;;;;;;5040856;28;20444;-84
2023/07/15 08:24:28;;;;;;;1.17;1.08;;;;;;;;;;5047185;28;20029;-82
2023/07/15 08:26:54;;;;;;;2.25;1.48;;;;;;;;;;5040976;28;20064;-84
2023/07/15 08:29:20;;;;;;;2.10;1.45;;;;;;;;;;5047356;28;20045;-85
2023/07/15 08:31:46;;;;;;;3.05;1.70;;;;;;;;;;5049178;28;20516;-84
2023/07/15 08:34:13;;;;;;;2.05;1.50;;;;;;;;;;5038594;28;20040;-85
2023/07/15 08:36:39;;;;;;;1.70;1.23;;;;;;;;;;5043742;28;20067;-84
2023/07/15 08:39:05;;;;;;;2.58;1.70;;;;;;;;;;5040556;28;20041;-84
2023/07/15 08:41:31;;;;;;;1.63;1.35;;;;;;;;;;5051137;28;20178;-86
2023/07/15 08:43:57;;;;;;;2.90;2.35;;;;;;;;;;5049713;28;20099;-85
2023/07/15 08:46:27;;;;;;;2.97;1.48;;;;;;;;;;5053500;28;20047;-87
2023/07/15 08:48:57;;;;;;;3.17;1.65;;;;;;;;;;5049532;28;20401;-85
2023/07/15 08:51:25;;;;;;;1.67;1.58;;;;;;;;;;5048004;28;20461;-87
2023/07/15 08:53:52;;;;;;;2.95;1.38;;;;;;;;;;5066904;28;20103;-87
2023/07/15 08:56:18;;;;;;;3.95;1.45;;;;;;;;;;5032596;28;20095;-86
2023/07/15 08:58:44;;;;;;;1.48;1.38;;;;;;;;;;5039968;28;20063;-85
2023/07/15 09:01:10;;;;;;;1.50;1.40;;;;;;;;;;5045629;28;20053;-87
2023/07/15 09:03:36;;;;;;;1.70;1.40;;;;;;;;;;5045417;28;20366;-88
2023/07/15 09:06:02;;;;;;;2.00;1.50;;;;;;;;;;5051967;28;20044;-88
2023/07/15 09:08:29;;;;;;;1.50;1.38;;;;;;;;;;5051687;28;20119;-88
2023/07/15 09:10:56;;;;;;;1.90;1.50;;;;;;;;;;5051787;28;20430;-94
2023/07/15 09:13:26;;;;;;;1.50;1.40;;;;;;;;;;5051075;28;20397;-83
2023/07/15 09:15:53;;;;;;;2.42;1.45;;;;;;;;;;5064617;28;20045;-86
2023/07/15 09:18:19;;;;;;;1.80;1.60;;;;;;;;;;5034134;28;20049;-86
2023/07/15 09:20:45;;;;;;;1.58;1.30;;;;;;;;;;5033169;28;20056;-88
2023/07/15 09:23:11;;;;;;;2.83;1.52;;;;;;;;;;5032870;28;20041;-86
2023/07/15 09:25:37;;;;;;;2.08;1.60;;;;;;;;;;5032077;28;20119;-89
2023/07/15 09:28:04;;;;;;;2.17;1.80;;;;;;;;;;5051610;28;20095;-91
2023/07/15 09:30:30;;;;;;;3.28;1.90;;;;;;;;;;5028001;28;20474;-91
2023/07/15 09:32:56;;;;;;;1.65;1.55;;;;;;;;;;5035551;28;20469;-89
2023/07/15 09:35:22;;;;;;;5.10;1.50;;;;;;;;;;5050609;28;20052;-87
2023/07/15 09:37:48;;;;;;;1.73;1.40;;;;;;;;;;5028821;28;20052;-89
2023/07/15 09:40:15;;;;;;;2.90;1.30;;;;;;;;;;5046954;28;20093;-90
2023/07/15 09:42:50;;;;;;;2.08;1.52;;;;;;;;;;5031580;28;20133;-89
2023/07/15 09:45:32;;;;;;;2.92;1.45;;;;;;;;;;5037983;28;20041;-86
2023/07/15 09:47:58;;;;;;;3.25;1.58;;;;;;;;;;5050904;28;20048;-95
2023/07/15 09:50:25;;;;;;;1.73;1.25;;;;;;;;;;5050904;28;20376;-94
2023/07/15 09:52:54;;;;;;;1.98;1.65;;;;;;;;;;5053865;28;20378;-92
2023/07/15 09:55:21;;;;;;;1.75;1.50;;;;;;;;;;5034064;28;20032;-89
2023/07/15 09:57:49;;;;;;;4.00;1.35;;;;;;;;;;5033504;28;20090;-89
2023/07/15 10:00:16;;;;;;;4.80;1.80;;;;;;;;;;5047184;28;20116;-91
2023/07/15 10:02:42;;;;;;;2.08;1.70;;;;;;;;;;5031097;28;20033;-92
2023/07/15 10:05:14;;;;;;;1.75;1.48;;;;;;;;;;5047653;28;20509;-90
2023/07/15 10:07:41;;;;;;;2.50;1.50;;;;;;;;;;5064132;28;20049;-86
2023/07/15 10:10:10;;;;;;;2.42;1.60;;;;;;;;;;5050418;28;20052;-88
2023/07/15 10:12:37;;;;;;;3.00;1.88;;;;;;;;;;5049471;28;20079;-86
2023/07/15 10:15:03;;;;;;;2.65;1.60;;;;;;;;;;5050988;28;20052;-87
2023/07/15 10:17:38;;;;;;;2.83;1.38;;;;;;;;;;5051425;28;20410;-90
2023/07/15 10:20:04;;;;;;;2.45;1.77;;;;;;;;;;5049912;28;20045;-89
2023/07/15 10:22:35;;;;;;;3.47;1.60;;;;;;;;;;5033384;28;20436;-87
2023/07/15 10:25:02;;;;;;;1.90;1.30;;;;;;;;;;5046317;28;20410;-91
2023/07/15 10:27:29;;;;;;;1.88;1.30;;;;;;;;;;5045151;28;20073;-88
2023/07/15 10:30:14;;;;;;;3.58;1.90;;;;;;;;;;5028997;28;20066;-86
2023/07/15 10:32:56;;;;;;;1.60;1.40;;;;;;;;;;5063289;28;20045;-89
2023/07/15 10:35:22;;;;;;;2.00;1.17;;;;;;;;;;5063513;28;20388;-86
2023/07/15 10:37:48;;;;;;;1.52;1.23;;;;;;;;;;5030951;28;20045;-92
2023/07/15 10:40:34;;;;;;;2.22;1.30;;;;;;;;;;5063449;28;20096;-87
2023/07/15 10:43:07;;;;;;;3.25;1.98;;;;;;;;;;5032170;28;20044;-90
2023/07/15 10:45:42;;;;;;;1.42;1.10;;;;;;;;;;5030455;28;20049;-91
2023/07/15 10:48:09;;;;;;;1.92;1.58;;;;;;;;;;5031558;28;20052;-92
2023/07/15 10:50:36;;;;;;;1.40;1.10;;;;;;;;;;5030030;28;20045;-95
2023/07/15 10:53:22;;;;;;;1.60;1.35;;;;;;;;;;5046288;28;20041;-89
2023/07/15 10:55:59;;;;;;;2.10;1.20;;;;;;;;;;5030223;28;20056;-89
2023/07/15 10:58:28;;;;;;;1.40;1.30;;;;;;;;;;5063025;28;20575;-89
2023/07/15 11:01:01;;;;;;;2.15;1.35;;;;;;;;;;5029995;28;20236;-92
2023/07/15 11:03:31;;;;;;;2.08;1.23;;;;;;;;;;5029660;28;20105;-88
2023/07/15 11:05:57;;;;;;;;;;;;;;;;;;5046369;28;20096;-88
2023/07/15 11:08:24;;;;;;;2.75;1.40;;;;;;;;;;5030402;28;19916;-88
2023/07/15 11:10:50;;;;;;;2.17;1.00;;;;;;;;;;5048730;28;20052;-93
2023/07/15 11:13:17;;;;;;;1.40;1.20;;;;;;;;;;5049957;28;20379;-90
2023/07/15 11:15:46;;;;;;;1.17;1.08;;;;;;;;;;5049524;28;20401;-88
2023/07/15 11:18:19;;;;;;;1.52;0.90;;;;;;;;;;5033438;28;20505;-86
2023/07/15 11:20:49;;;;;;;1.08;1.00;;;;;;;;;;5041631;28;20060;-95
2023/07/15 11:23:15;;;;;;;3.15;1.25;;;;;;;;;;5034858;28;20068;-87
2023/07/15 11:25:41;;;;;;;2.05;1.42;;;;;;;;;;5035163;28;20118;-88
2023/07/15 11:28:07;;;;;;;1.98;1.45;;;;;;;;;;5031232;28;20042;-94
2023/07/15 11:30:34;;;;;;;2.60;1.40;;;;;;;;;;5030786;28;20121;-87
2023/07/15 11:33:00;;;;;;;1.98;1.35;;;;;;;;;;5031363;28;20067;-86
2023/07/15 11:35:29;;;;;;;2.63;2.22;;;;;;;;;;5030516;28;20080;-89
2023/07/15 11:37:56;;;;;;;1.70;1.35;;;;;;;;;;5062466;28;20603;-88
2023/07/15 11:40:22;;;;;;;1.45;1.35;;;;;;;;;;5061631;28;20056;-87
2023/07/15 11:42:51;;;;;;;1.45;1.30;;;;;;;;;;5029973;28;20624;-88
2023/07/15 11:45:17;;;;;;;1.42;1.33;;;;;;;;;;5049451;28;20394;-86
2023/07/15 11:47:43;;;;;;;3.17;1.52;;;;;;;;;;5048763;28;20468;-92
2023/07/15 11:50:15;;;;;;;1.50;1.40;;;;;;;;;;5051189;28;20464;-95
2023/07/15 11:52:44;;;;;;;3.45;1.40;;;;;;;;;;5033693;28;20166;-89
2023/07/15 11:55:10;;;;;;;1.80;1.30;;;;;;;;;;5049294;28;20033;-91
2023/07/15 11:57:43;;;;;;;2.60;1.42;;;;;;;;;;5047812;28;20057;-91
2023/07/15 12:00:24;;;;;;;4.05;1.38;;;;;;;;;;5048365;28;20437;-87
2023/07/15 12:02:50;;;;;;;2.95;1.58;;;;;;;;;;5048620;28;20037;-85
2023/07/15 12:05:16;;;;;;;2.25;1.20;;;;;;;;;;5032836;28;20064;-86
2023/07/15 12:07:52;;;;;;;2.35;1.02;;;;;;;;;;5044939;28;20045;-85
2023/07/15 12:10:19;;;;;;;1.77;1.33;;;;;;;;;;5046648;28;20047;-87
2023/07/15 12:12:46;;;;;;;1.40;1.30;;;;;;;;;;5046685;28;20053;-86
2023/07/15 12:15:17;;;;;;;2.08;1.17;;;;;;;;;;5028997;28;20475;-86
2023/07/15 12:17:44;;;;;;;3.60;1.40;;;;;;;;;;5062427;28;20114;-86
2023/07/15 12:20:12;;;;;;;2.70;1.20;;;;;;;;;;5029662;28;20107;-86
2023/07/15 12:22:38;;;;;;;1.75;1.30;;;;;;;;;;5044592;28;20569;-86
2023/07/15 12:25:05;;;;;;;2.38;1.08;;;;;;;;;;5029455;28;20054;-87
2023/07/15 12:27:31;;;;;;;2.67;1.27;;;;;;;;;;5061013;28;20047;-88
2023/07/15 12:29:57;;;;;;;2.42;1.30;;;;;;;;;;5077019;28;20045;-87
2023/07/15 12:32:23;;;;;;;2.33;1.00;;;;;;;;;;5048889;28;20033;-86
2023/07/15 12:34:49;;;;;;;1.55;1.08;;;;;;;;;;5048148;28;20045;-84
2023/07/15 12:37:15;;;;;;;1.20;0.93;;;;;;;;;;5048026;28;20244;-86
2023/07/15 12:39:41;;;;;;;2.05;1.55;;;;;;;;;;5046193;28;20127;-85
2023/07/15 12:42:07;;;;;;;1.50;1.40;;;;;;;;;;5049841;28;20132;-86
2023/07/15 12:44:33;;;;;;;2.50;1.42;;;;;;;;;;5031088;28;20123;-87
2023/07/15 12:46:59;;;;;;;2.10;1.30;;;;;;;;;;5047846;28;20407;-86
2023/07/15 12:49:25;;;;;;;1.98;1.27;;;;;;;;;;5036657;28;20041;-86
2023/07/15 12:51:51;;;;;;;1.10;1.00;;;;;;;;;;5028996;28;20498;-85
2023/07/15 12:54:17;;;;;;;2.58;1.20;;;;;;;;;;5060884;28;20049;-84
2023/07/15 12:56:43;;;;;;;2.90;1.10;;;;;;;;;;5061408;28;20394;-86
2023/07/15 12:59:09;;;;;;;1.10;1.00;;;;;;;;;;5060817;28;20048;-85
2023/07/15 13:01:36;;;;;;;1.90;1.00;;;;;;;;;;5044080;28;20038;-87
2023/07/15 13:04:02;;;;;;;1.83;1.00;;;;;;;;;;5060342;28;20136;-86
2023/07/15 13:06:28;;;;;;;3.83;1.00;;;;;;;;;;5060445;28;20512;-85
2023/07/15 13:08:54;;;;;;;2.50;1.10;;;;;;;;;;5066263;28;20069;-86
2023/07/15 13:11:20;;;;;;;1.65;1.00;;;;;;;;;;5047603;28;20120;-85
2023/07/15 13:13:46;;;;;;;1.40;0.85;;;;;;;;;;5048948;28;20051;-85
2023/07/15 13:16:12;;;;;;;1.20;0.80;;;;;;;;;;5049220;28;20040;-85
2023/07/15 13:18:38;;;;;;;1.70;1.00;;;;;;;;;;5040892;28;20046;-85
2023/07/15 13:21:04;;;;;;;2.13;1.20;;;;;;;;;;5036466;28;20107;-85
2023/07/15 13:23:30;;;;;;;1.20;1.10;;;;;;;;;;5047389;28;20045;-85
2023/07/15 13:25:56;;;;;;;1.65;1.00;;;;;;;;;;5052480;28;20037;-84
2023/07/15 13:28:23;;;;;;;0.70;0.57;;;;;;;;;;5052215;28;20040;-87
2023/07/15 13:30:49;;;;;;;2.05;0.75;;;;;;;;;;5051407;28;20432;-85
2023/07/15 13:33:15;;;;;;;1.13;0.88;;;;;;;;;;5045874;28;20072;-85
2023/07/15 13:35:41;;;;;;;1.42;0.90;;;;;;;;;;5062968;28;20037;-84
2023/07/15 13:38:07;;;;;;;3.20;0.77;;;;;;;;;;5043390;28;20451;-85
2023/07/15 13:40:33;;;;;;;1.00;0.90;;;;;;;;;;5051861;28;20094;-85
2023/07/15 13:42:59;;;;;;;1.35;0.93;;;;;;;;;;5052341;28;20073;-84
2023/07/15 13:45:25;;;;;;;1.30;0.90;;;;;;;;;;5051765;28;20047;-83
2023/07/15 13:47:52;;;;;;;3.10;1.23;;;;;;;;;;5043082;28;20374;-84
2023/07/15 13:50:18;;;;;;;1.60;0.90;;;;;;;;;;5047221;28;20041;-85
2023/07/15 13:52:44;;;;;;;1.48;1.20;;;;;;;;;;5015102;28;20052;-87
2023/07/15 13:55:10;;;;;;;2.05;1.02;;;;;;;;;;5031169;28;20045;-84
2023/07/15 13:57:36;;;;;;;4.65;1.30;;;;;;;;;;5030156;28;20049;-84
2023/07/15 14:00:04;;;;;;;1.30;1.17;;;;;;;;;;5031063;28;20041;-86
2023/07/15 14:02:30;;;;;;;1.50;1.20;;;;;;;;;;5047832;28;20098;-83
2023/07/15 14:04:56;;;;;;;1.60;1.17;;;;;;;;;;5041793;28;20056;-86
2023/07/15 14:07:22;;;;;;;1.73;1.20;;;;;;;;;;5046596;28;20045;-84
2023/07/15 14:09:48;;;;;;;1.60;0.93;;;;;;;;;;5063719;28;20458;-83
2023/07/15 14:12:14;;;;;;;1.42;1.30;;;;;;;;;;5030570;28;20115;-85
2023/07/15 14:14:40;;;;;;;2.08;1.13;;;;;;;;;;5031452;28;20155;-83
2023/07/15 14:17:07;;;;;;;1.30;1.17;;;;;;;;;;5030337;28;20049;-82
2023/07/15 14:19:34;;;;;;;2.45;1.10;;;;;;;;;;5033288;28;20234;-84
2023/07/15 14:22:00;;;;;;;1.75;1.30;;;;;;;;;;5047561;28;20044;-85
2023/07/15 14:24:26;;;;;;;2.33;1.20;;;;;;;;;;5037420;28;20037;-83
2023/07/15 14:26:52;;;;;;;3.92;1.55;;;;;;;;;;5051448;28;20452;-83
2023/07/15 14:29:18;;;;;;;1.67;1.00;;;;;;;;;;5052034;28;20037;-82
2023/07/15 14:31:44;;;;;;;2.50;1.30;;;;;;;;;;5054622;28;20457;-85
2023/07/15 14:34:10;;;;;;;2.33;1.35;;;;;;;;;;5055008;28;20041;-84
2023/07/15 14:36:36;;;;;;;1.90;1.23;;;;;;;;;;5048832;28;20041;-87
2023/07/15 14:39:04;;;;;;;2.47;1.35;;;;;;;;;;5046570;28;20041;-89
2023/07/15 14:41:30;;;;;;;2.30;1.50;;;;;;;;;;5048424;28;20041;-85